Ariel, Washington
Current Conditions -  °F | °C
As of 3:53 AM on Friday 31 Oct 2014 (Local Time) from KSPB Reporting Station
Moderate Rain Moderate Rain  
Wind Chill: 53°   Ceiling: 2600
Heat Index: 53°   Visibility: 3mi
Dew Point: 52°   Wind: 6mph
Humidity: 96%   Direction: 340°NNW
Pressure: 29.69"   Gusts: NA
Location:  45.96°N, 122.57°W
Report Text: KSPB 311053Z AUTO 34005KT 3SM RA BR SCT020 BKN026 OVC037 12/11 A2969 RMK AO2 SLP054 P0012 T01170111
Loading
Personal Weather Stations






























Interactive Weather Map New forecast layout! Learn more

10-Day Weather Forecast

Advertisements
Track Severe Weather on mobile